sensor_id;sensor_type;location;lat;lon;timestamp;temperature;humidity
72128;DHT22;60000;51.030;7.024;2024-01-25T00:00:19;9.15;81.54
72128;DHT22;60000;51.030;7.024;2024-01-25T00:02:44;9.17;81.23
72128;DHT22;60000;51.030;7.024;2024-01-25T00:05:09;9.12;81.40
72128;DHT22;60000;51.030;7.024;2024-01-25T00:07:45;9.15;81.65
72128;DHT22;60000;51.030;7.024;2024-01-25T00:10:10;9.20;81.37
72128;DHT22;60000;51.030;7.024;2024-01-25T00:12:35;9.15;81.39
72128;DHT22;60000;51.030;7.024;2024-01-25T00:15:00;9.10;81.30
72128;DHT22;60000;51.030;7.024;2024-01-25T00:17:26;9.04;81.71
72128;DHT22;60000;51.030;7.024;2024-01-25T00:19:51;8.99;81.77
72128;DHT22;60000;51.030;7.024;2024-01-25T00:22:17;9.00;81.97
72128;DHT22;60000;51.030;7.024;2024-01-25T00:24:42;8.97;81.97
72128;DHT22;60000;51.030;7.024;2024-01-25T00:27:07;8.94;82.25
72128;DHT22;60000;51.030;7.024;2024-01-25T00:29:34;8.96;82.25
72128;DHT22;60000;51.030;7.024;2024-01-25T00:31:59;8.94;82.32
72128;DHT22;60000;51.030;7.024;2024-01-25T00:34:24;8.97;82.41
72128;DHT22;60000;51.030;7.024;2024-01-25T00:36:50;8.96;82.25
72128;DHT22;60000;51.030;7.024;2024-01-25T00:39:16;8.92;82.33
72128;DHT22;60000;51.030;7.024;2024-01-25T00:41:44;8.92;82.37
72128;DHT22;60000;51.030;7.024;2024-01-25T00:44:09;8.92;82.39
72128;DHT22;60000;51.030;7.024;2024-01-25T00:46:35;8.96;82.41
72128;DHT22;60000;51.030;7.024;2024-01-25T00:49:00;8.94;82.38
72128;DHT22;60000;51.030;7.024;2024-01-25T00:51:26;8.97;82.46
72128;DHT22;60000;51.030;7.024;2024-01-25T00:53:52;8.91;82.37
72128;DHT22;60000;51.030;7.024;2024-01-25T00:56:17;8.88;82.47
72128;DHT22;60000;51.030;7.024;2024-01-25T00:58:43;8.85;82.53
72128;DHT22;60000;51.030;7.024;2024-01-25T01:01:08;8.87;82.84
72128;DHT22;60000;51.030;7.024;2024-01-25T01:03:35;8.84;82.78
72128;DHT22;60000;51.030;7.024;2024-01-25T01:06:01;8.84;82.76
72128;DHT22;60000;51.030;7.024;2024-01-25T01:08:27;8.81;82.78
72128;DHT22;60000;51.030;7.024;2024-01-25T01:10:53;8.79;82.78
72128;DHT22;60000;51.030;7.024;2024-01-25T01:13:18;8.77;83.02
72128;DHT22;60000;51.030;7.024;2024-01-25T01:15:43;8.74;82.82
72128;DHT22;60000;51.030;7.024;2024-01-25T01:18:09;8.74;82.86
72128;DHT22;60000;51.030;7.024;2024-01-25T01:20:34;8.74;82.74
72128;DHT22;60000;51.030;7.024;2024-01-25T01:22:59;8.67;82.88
72128;DHT22;60000;51.030;7.024;2024-01-25T01:25:25;8.62;82.74
72128;DHT22;60000;51.030;7.024;2024-01-25T01:27:50;8.59;82.74
72128;DHT22;60000;51.030;7.024;2024-01-25T01:30:15;8.52;82.78
72128;DHT22;60000;51.030;7.024;2024-01-25T01:32:41;8.48;82.96
72128;DHT22;60000;51.030;7.024;2024-01-25T01:35:10;8.45;83.08
72128;DHT22;60000;51.030;7.024;2024-01-25T01:37:35;8.45;83.16
72128;DHT22;60000;51.030;7.024;2024-01-25T01:40:00;8.35;83.27
72128;DHT22;60000;51.030;7.024;2024-01-25T01:42:27;8.33;83.32
72128;DHT22;60000;51.030;7.024;2024-01-25T01:44:52;8.32;83.42
72128;DHT22;60000;51.030;7.024;2024-01-25T01:47:18;8.26;83.42
72128;DHT22;60000;51.030;7.024;2024-01-25T01:49:44;8.24;83.48
72128;DHT22;60000;51.030;7.024;2024-01-25T01:52:09;8.19;83.88
72128;DHT22;60000;51.030;7.024;2024-01-25T01:54:36;8.16;84.07
72128;DHT22;60000;51.030;7.024;2024-01-25T01:57:02;8.12;83.74
72128;DHT22;60000;51.030;7.024;2024-01-25T01:59:28;8.09;84.12
72128;DHT22;60000;51.030;7.024;2024-01-25T02:01:54;8.06;84.02
72128;DHT22;60000;51.030;7.024;2024-01-25T02:04:19;8.02;84.43
72128;DHT22;60000;51.030;7.024;2024-01-25T02:06:45;8.01;84.62
72128;DHT22;60000;51.030;7.024;2024-01-25T02:09:11;7.97;84.60
72128;DHT22;60000;51.030;7.024;2024-01-25T02:11:37;7.95;84.61
72128;DHT22;60000;51.030;7.024;2024-01-25T02:14:02;7.95;84.74
72128;DHT22;60000;51.030;7.024;2024-01-25T02:16:27;7.97;84.73
72128;DHT22;60000;51.030;7.024;2024-01-25T02:18:53;7.92;84.73
72128;DHT22;60000;51.030;7.024;2024-01-25T02:21:23;7.90;84.88
72128;DHT22;60000;51.030;7.024;2024-01-25T02:23:49;7.88;85.01
72128;DHT22;60000;51.030;7.024;2024-01-25T02:26:14;7.90;85.23
72128;DHT22;60000;51.030;7.024;2024-01-25T02:28:40;7.92;85.35
72128;DHT22;60000;51.030;7.024;2024-01-25T02:31:05;7.90;85.32
72128;DHT22;60000;51.030;7.024;2024-01-25T02:33:30;7.91;85.42
72128;DHT22;60000;51.030;7.024;2024-01-25T02:35:56;7.90;85.45
72128;DHT22;60000;51.030;7.024;2024-01-25T02:38:21;7.92;85.50
72128;DHT22;60000;51.030;7.024;2024-01-25T02:40:46;7.94;85.62
72128;DHT22;60000;51.030;7.024;2024-01-25T02:43:12;7.98;85.54
72128;DHT22;60000;51.030;7.024;2024-01-25T02:45:37;8.02;85.52
72128;DHT22;60000;51.030;7.024;2024-01-25T02:48:03;8.02;85.41
72128;DHT22;60000;51.030;7.024;2024-01-25T02:50:29;8.09;85.04
72128;DHT22;60000;51.030;7.024;2024-01-25T02:52:54;8.12;85.00
72128;DHT22;60000;51.030;7.024;2024-01-25T02:55:20;8.11;84.88
72128;DHT22;60000;51.030;7.024;2024-01-25T02:57:45;8.11;84.81
72128;DHT22;60000;51.030;7.024;2024-01-25T03:00:11;8.15;84.90
72128;DHT22;60000;51.030;7.024;2024-01-25T03:02:37;8.15;84.89
72128;DHT22;60000;51.030;7.024;2024-01-25T03:05:02;8.16;84.94
72128;DHT22;60000;51.030;7.024;2024-01-25T03:07:28;8.24;84.89
72128;DHT22;60000;51.030;7.024;2024-01-25T03:09:53;8.24;84.94
72128;DHT22;60000;51.030;7.024;2024-01-25T03:12:19;8.28;84.80
72128;DHT22;60000;51.030;7.024;2024-01-25T03:14:45;8.28;84.78
72128;DHT22;60000;51.030;7.024;2024-01-25T03:17:10;8.26;84.76
72128;DHT22;60000;51.030;7.024;2024-01-25T03:19:37;8.25;84.66
72128;DHT22;60000;51.030;7.024;2024-01-25T03:22:03;8.19;84.77
72128;DHT22;60000;51.030;7.024;2024-01-25T03:24:28;8.15;84.79
72128;DHT22;60000;51.030;7.024;2024-01-25T03:26:53;8.12;85.10
72128;DHT22;60000;51.030;7.024;2024-01-25T03:29:19;8.13;85.23
72128;DHT22;60000;51.030;7.024;2024-01-25T03:31:44;8.13;84.96
72128;DHT22;60000;51.030;7.024;2024-01-25T03:34:09;8.09;85.04
72128;DHT22;60000;51.030;7.024;2024-01-25T03:36:35;8.02;85.03
72128;DHT22;60000;51.030;7.024;2024-01-25T03:39:01;7.97;85.06
72128;DHT22;60000;51.030;7.024;2024-01-25T03:41:26;7.91;85.33
72128;DHT22;60000;51.030;7.024;2024-01-25T03:43:54;7.88;85.48
72128;DHT22;60000;51.030;7.024;2024-01-25T03:46:19;7.85;85.69
72128;DHT22;60000;51.030;7.024;2024-01-25T03:48:45;7.78;85.61
72128;DHT22;60000;51.030;7.024;2024-01-25T03:51:10;7.74;85.73
72128;DHT22;60000;51.030;7.024;2024-01-25T03:53:35;7.71;85.86
72128;DHT22;60000;51.030;7.024;2024-01-25T03:56:01;7.67;86.01
72128;DHT22;60000;51.030;7.024;2024-01-25T03:58:26;7.63;85.96
72128;DHT22;60000;51.030;7.024;2024-01-25T04:00:51;7.60;86.09
72128;DHT22;60000;51.030;7.024;2024-01-25T04:03:17;7.59;86.28
72128;DHT22;60000;51.030;7.024;2024-01-25T04:05:42;7.57;86.41
72128;DHT22;60000;51.030;7.024;2024-01-25T04:08:08;7.53;86.52
72128;DHT22;60000;51.030;7.024;2024-01-25T04:10:33;7.51;86.59
72128;DHT22;60000;51.030;7.024;2024-01-25T04:12:59;7.50;86.65
72128;DHT22;60000;51.030;7.024;2024-01-25T04:15:30;7.49;86.92
72128;DHT22;60000;51.030;7.024;2024-01-25T04:17:55;7.44;86.74
72128;DHT22;60000;51.030;7.024;2024-01-25T04:20:24;7.39;86.92
72128;DHT22;60000;51.030;7.024;2024-01-25T04:22:49;7.34;86.87
72128;DHT22;60000;51.030;7.024;2024-01-25T04:25:15;7.30;86.96
72128;DHT22;60000;51.030;7.024;2024-01-25T04:27:40;7.26;86.98
72128;DHT22;60000;51.030;7.024;2024-01-25T04:30:07;7.23;87.20
72128;DHT22;60000;51.030;7.024;2024-01-25T04:32:33;7.19;87.40
72128;DHT22;60000;51.030;7.024;2024-01-25T04:34:58;7.18;87.37
72128;DHT22;60000;51.030;7.024;2024-01-25T04:37:23;7.16;87.72
72128;DHT22;60000;51.030;7.024;2024-01-25T04:39:49;7.12;87.63
72128;DHT22;60000;51.030;7.024;2024-01-25T04:42:14;7.12;88.00
72128;DHT22;60000;51.030;7.024;2024-01-25T04:44:39;7.09;87.96
72128;DHT22;60000;51.030;7.024;2024-01-25T04:47:05;7.09;88.09
72128;DHT22;60000;51.030;7.024;2024-01-25T04:49:30;7.05;88.05
72128;DHT22;60000;51.030;7.024;2024-01-25T04:51:56;7.03;88.34
72128;DHT22;60000;51.030;7.024;2024-01-25T04:54:21;6.96;88.04
72128;DHT22;60000;51.030;7.024;2024-01-25T04:56:46;6.93;88.26
72128;DHT22;60000;51.030;7.024;2024-01-25T04:59:12;6.85;88.33
72128;DHT22;60000;51.030;7.024;2024-01-25T05:01:37;6.85;88.46
72128;DHT22;60000;51.030;7.024;2024-01-25T05:04:03;6.81;88.48
72128;DHT22;60000;51.030;7.024;2024-01-25T05:06:28;6.74;88.59
72128;DHT22;60000;51.030;7.024;2024-01-25T05:08:54;6.72;88.58
72128;DHT22;60000;51.030;7.024;2024-01-25T05:11:19;6.65;88.84
72128;DHT22;60000;51.030;7.024;2024-01-25T05:13:44;6.63;88.71
72128;DHT22;60000;51.030;7.024;2024-01-25T05:16:10;6.58;88.75
72128;DHT22;60000;51.030;7.024;2024-01-25T05:18:36;6.53;88.96
72128;DHT22;60000;51.030;7.024;2024-01-25T05:21:02;6.47;88.92
72128;DHT22;60000;51.030;7.024;2024-01-25T05:23:27;6.45;89.06
72128;DHT22;60000;51.030;7.024;2024-01-25T05:25:52;6.38;89.04
72128;DHT22;60000;51.030;7.024;2024-01-25T05:28:18;6.33;89.23
72128;DHT22;60000;51.030;7.024;2024-01-25T05:30:43;6.33;89.48
72128;DHT22;60000;51.030;7.024;2024-01-25T05:33:08;6.32;89.50
72128;DHT22;60000;51.030;7.024;2024-01-25T05:35:34;6.30;89.75
72128;DHT22;60000;51.030;7.024;2024-01-25T05:38:00;6.30;89.92
72128;DHT22;60000;51.030;7.024;2024-01-25T05:40:25;6.23;89.58
72128;DHT22;60000;51.030;7.024;2024-01-25T05:42:50;6.19;89.67
72128;DHT22;60000;51.030;7.024;2024-01-25T05:45:16;6.17;89.85
72128;DHT22;60000;51.030;7.024;2024-01-25T05:47:45;6.17;90.12
72128;DHT22;60000;51.030;7.024;2024-01-25T05:50:10;6.17;90.27
72128;DHT22;60000;51.030;7.024;2024-01-25T05:52:35;6.16;90.48
72128;DHT22;60000;51.030;7.024;2024-01-25T05:55:03;6.13;90.54
72128;DHT22;60000;51.030;7.024;2024-01-25T05:57:28;6.14;90.73
72128;DHT22;60000;51.030;7.024;2024-01-25T05:59:54;6.17;90.78
72128;DHT22;60000;51.030;7.024;2024-01-25T06:02:19;6.17;90.70
72128;DHT22;60000;51.030;7.024;2024-01-25T06:04:44;6.13;90.63
72128;DHT22;60000;51.030;7.024;2024-01-25T06:07:09;6.09;90.56
72128;DHT22;60000;51.030;7.024;2024-01-25T06:09:35;6.05;90.67
72128;DHT22;60000;51.030;7.024;2024-01-25T06:12:01;6.05;90.76
72128;DHT22;60000;51.030;7.024;2024-01-25T06:14:26;6.02;90.96
72128;DHT22;60000;51.030;7.024;2024-01-25T06:16:51;6.05;90.95
72128;DHT22;60000;51.030;7.024;2024-01-25T06:19:17;5.99;90.66
72128;DHT22;60000;51.030;7.024;2024-01-25T06:21:42;5.91;90.55
72128;DHT22;60000;51.030;7.024;2024-01-25T06:24:07;5.91;90.92
72128;DHT22;60000;51.030;7.024;2024-01-25T06:26:33;5.93;91.12
72128;DHT22;60000;51.030;7.024;2024-01-25T06:28:58;5.93;91.18
72128;DHT22;60000;51.030;7.024;2024-01-25T06:31:24;5.93;90.89
72128;DHT22;60000;51.030;7.024;2024-01-25T06:33:50;5.89;90.96
72128;DHT22;60000;51.030;7.024;2024-01-25T06:36:18;5.86;90.93
72128;DHT22;60000;51.030;7.024;2024-01-25T06:38:43;5.83;91.05
72128;DHT22;60000;51.030;7.024;2024-01-25T06:41:08;5.82;90.98
72128;DHT22;60000;51.030;7.024;2024-01-25T06:43:34;5.79;91.08
72128;DHT22;60000;51.030;7.024;2024-01-25T06:45:59;5.79;90.92
72128;DHT22;60000;51.030;7.024;2024-01-25T06:48:25;5.72;90.88
72128;DHT22;60000;51.030;7.024;2024-01-25T06:50:50;5.66;90.89
72128;DHT22;60000;51.030;7.024;2024-01-25T06:53:16;5.65;91.10
72128;DHT22;60000;51.030;7.024;2024-01-25T06:55:41;5.55;90.50
72128;DHT22;60000;51.030;7.024;2024-01-25T06:58:07;5.48;90.41
72128;DHT22;60000;51.030;7.024;2024-01-25T07:00:32;5.40;90.41
72128;DHT22;60000;51.030;7.024;2024-01-25T07:02:57;5.30;90.25
72128;DHT22;60000;51.030;7.024;2024-01-25T07:05:23;5.20;90.46
72128;DHT22;60000;51.030;7.024;2024-01-25T07:07:49;5.17;90.49
72128;DHT22;60000;51.030;7.024;2024-01-25T07:10:14;5.06;90.43
72128;DHT22;60000;51.030;7.024;2024-01-25T07:12:40;4.99;90.47
72128;DHT22;60000;51.030;7.024;2024-01-25T07:15:05;4.96;90.69
72128;DHT22;60000;51.030;7.024;2024-01-25T07:17:31;4.92;90.76
72128;DHT22;60000;51.030;7.024;2024-01-25T07:19:56;4.83;90.71
72128;DHT22;60000;51.030;7.024;2024-01-25T07:22:21;4.79;90.73
72128;DHT22;60000;51.030;7.024;2024-01-25T07:24:47;4.72;90.86
72128;DHT22;60000;51.030;7.024;2024-01-25T07:27:13;4.66;90.98
72128;DHT22;60000;51.030;7.024;2024-01-25T07:29:38;4.66;91.04
72128;DHT22;60000;51.030;7.024;2024-01-25T07:32:04;4.61;91.12
72128;DHT22;60000;51.030;7.024;2024-01-25T07:34:29;4.59;91.14
72128;DHT22;60000;51.030;7.024;2024-01-25T07:36:54;4.63;91.86
72128;DHT22;60000;51.030;7.024;2024-01-25T07:39:20;4.63;91.80
72128;DHT22;60000;51.030;7.024;2024-01-25T07:41:45;4.65;91.81
72128;DHT22;60000;51.030;7.024;2024-01-25T07:44:10;4.59;91.81
72128;DHT22;60000;51.030;7.024;2024-01-25T07:46:36;4.63;91.93
72128;DHT22;60000;51.030;7.024;2024-01-25T07:49:01;4.61;91.90
72128;DHT22;60000;51.030;7.024;2024-01-25T07:51:26;4.65;92.12
72128;DHT22;60000;51.030;7.024;2024-01-25T07:53:54;4.63;92.03
72128;DHT22;60000;51.030;7.024;2024-01-25T07:56:20;4.61;92.12
72128;DHT22;60000;51.030;7.024;2024-01-25T07:58:48;4.61;92.10
72128;DHT22;60000;51.030;7.024;2024-01-25T08:01:17;4.58;92.11
72128;DHT22;60000;51.030;7.024;2024-01-25T08:03:42;4.58;92.19
72128;DHT22;60000;51.030;7.024;2024-01-25T08:06:08;4.62;92.29
72128;DHT22;60000;51.030;7.024;2024-01-25T08:08:33;4.63;92.41
72128;DHT22;60000;51.030;7.024;2024-01-25T08:10:58;4.69;92.53
72128;DHT22;60000;51.030;7.024;2024-01-25T08:13:24;4.72;92.61
72128;DHT22;60000;51.030;7.024;2024-01-25T08:15:49;4.76;92.76
72128;DHT22;60000;51.030;7.024;2024-01-25T08:18:15;4.80;92.70
72128;DHT22;60000;51.030;7.024;2024-01-25T08:20:40;4.84;92.74
72128;DHT22;60000;51.030;7.024;2024-01-25T08:23:07;4.92;92.81
72128;DHT22;60000;51.030;7.024;2024-01-25T08:25:34;5.00;92.88
72128;DHT22;60000;51.030;7.024;2024-01-25T08:27:59;5.07;92.91
72128;DHT22;60000;51.030;7.024;2024-01-25T08:30:25;5.13;92.85
72128;DHT22;60000;51.030;7.024;2024-01-25T08:32:50;5.20;92.75
72128;DHT22;60000;51.030;7.024;2024-01-25T08:35:17;5.20;92.55
72128;DHT22;60000;51.030;7.024;2024-01-25T08:37:42;5.30;92.76
72128;DHT22;60000;51.030;7.024;2024-01-25T08:40:08;5.34;92.57
72128;DHT22;60000;51.030;7.024;2024-01-25T08:42:35;5.44;92.63
72128;DHT22;60000;51.030;7.024;2024-01-25T08:45:00;5.47;92.34
72128;DHT22;60000;51.030;7.024;2024-01-25T08:47:25;5.54;92.37
72128;DHT22;60000;51.030;7.024;2024-01-25T08:49:51;5.59;92.17
72128;DHT22;60000;51.030;7.024;2024-01-25T08:52:16;5.68;92.36
72128;DHT22;60000;51.030;7.024;2024-01-25T08:54:42;5.78;92.43
72128;DHT22;60000;51.030;7.024;2024-01-25T08:57:07;5.86;92.24
72128;DHT22;60000;51.030;7.024;2024-01-25T08:59:34;5.99;92.53
72128;DHT22;60000;51.030;7.024;2024-01-25T09:02:00;6.07;92.44
72128;DHT22;60000;51.030;7.024;2024-01-25T09:04:25;6.17;92.08
72128;DHT22;60000;51.030;7.024;2024-01-25T09:06:51;6.29;92.17
72128;DHT22;60000;51.030;7.024;2024-01-25T09:09:16;6.36;91.99
72128;DHT22;60000;51.030;7.024;2024-01-25T09:11:41;6.47;91.81
72128;DHT22;60000;51.030;7.024;2024-01-25T09:14:07;6.55;91.77
72128;DHT22;60000;51.030;7.024;2024-01-25T09:16:32;6.64;91.59
72128;DHT22;60000;51.030;7.024;2024-01-25T09:18:57;6.72;91.64
72128;DHT22;60000;51.030;7.024;2024-01-25T09:21:23;6.84;91.60
72128;DHT22;60000;51.030;7.024;2024-01-25T09:23:48;6.91;91.22
72128;DHT22;60000;51.030;7.024;2024-01-25T09:26:13;6.96;90.82
72128;DHT22;60000;51.030;7.024;2024-01-25T09:28:39;7.09;91.10
72128;DHT22;60000;51.030;7.024;2024-01-25T09:31:04;7.18;90.77
72128;DHT22;60000;51.030;7.024;2024-01-25T09:33:29;7.26;90.37
72128;DHT22;60000;51.030;7.024;2024-01-25T09:35:55;7.36;90.37
72128;DHT22;60000;51.030;7.024;2024-01-25T09:38:21;7.53;90.90
72128;DHT22;60000;51.030;7.024;2024-01-25T09:40:46;7.61;90.17
72128;DHT22;60000;51.030;7.024;2024-01-25T09:43:11;7.74;89.97
72128;DHT22;60000;51.030;7.024;2024-01-25T09:45:37;7.81;89.38
72128;DHT22;60000;51.030;7.024;2024-01-25T09:48:06;7.91;89.24
72128;DHT22;60000;51.030;7.024;2024-01-25T09:50:31;8.08;89.39
72128;DHT22;60000;51.030;7.024;2024-01-25T09:52:59;8.19;89.03
72128;DHT22;60000;51.030;7.024;2024-01-25T09:55:25;8.26;88.24
72128;DHT22;60000;51.030;7.024;2024-01-25T09:57:54;8.31;87.65
72128;DHT22;60000;51.030;7.024;2024-01-25T10:00:23;8.33;87.06
72128;DHT22;60000;51.030;7.024;2024-01-25T10:02:49;8.38;86.83
72128;DHT22;60000;51.030;7.024;2024-01-25T10:05:17;8.41;86.71
72128;DHT22;60000;51.030;7.024;2024-01-25T10:07:44;8.48;86.77
72128;DHT22;60000;51.030;7.024;2024-01-25T10:10:12;8.57;86.82
72128;DHT22;60000;51.030;7.024;2024-01-25T10:12:38;8.62;86.19
72128;DHT22;60000;51.030;7.024;2024-01-25T10:15:04;8.74;86.02
72128;DHT22;60000;51.030;7.024;2024-01-25T10:17:30;8.80;84.77
72128;DHT22;60000;51.030;7.024;2024-01-25T10:19:56;8.80;84.88
72128;DHT22;60000;51.030;7.024;2024-01-25T10:22:21;8.90;84.94
72128;DHT22;60000;51.030;7.024;2024-01-25T10:24:48;8.94;84.22
72128;DHT22;60000;51.030;7.024;2024-01-25T10:27:15;9.00;84.41
72128;DHT22;60000;51.030;7.024;2024-01-25T10:29:41;9.01;83.96
72128;DHT22;60000;51.030;7.024;2024-01-25T10:32:08;9.14;84.55
72128;DHT22;60000;51.030;7.024;2024-01-25T10:34:35;9.25;84.30
72128;DHT22;60000;51.030;7.024;2024-01-25T10:37:03;9.32;83.31
72128;DHT22;60000;51.030;7.024;2024-01-25T10:39:29;9.41;82.99
72128;DHT22;60000;51.030;7.024;2024-01-25T10:41:56;9.51;82.99
72128;DHT22;60000;51.030;7.024;2024-01-25T10:44:21;9.60;82.85
72128;DHT22;60000;51.030;7.024;2024-01-25T10:46:47;9.68;82.11
72128;DHT22;60000;51.030;7.024;2024-01-25T10:49:14;9.76;81.85
72128;DHT22;60000;51.030;7.024;2024-01-25T10:51:43;9.78;80.94
72128;DHT22;60000;51.030;7.024;2024-01-25T10:54:08;9.70;80.21
72128;DHT22;60000;51.030;7.024;2024-01-25T10:56:37;9.73;80.97
72128;DHT22;60000;51.030;7.024;2024-01-25T10:59:03;9.82;81.06
72128;DHT22;60000;51.030;7.024;2024-01-25T11:01:29;9.93;80.96
72128;DHT22;60000;51.030;7.024;2024-01-25T11:03:55;9.99;80.23
72128;DHT22;60000;51.030;7.024;2024-01-25T11:06:21;9.97;79.13
72128;DHT22;60000;51.030;7.024;2024-01-25T11:08:49;10.07;79.45
72128;DHT22;60000;51.030;7.024;2024-01-25T11:11:15;10.13;79.30
72128;DHT22;60000;51.030;7.024;2024-01-25T11:13:44;10.13;78.35
72128;DHT22;60000;51.030;7.024;2024-01-25T11:16:13;10.14;78.25
72128;DHT22;60000;51.030;7.024;2024-01-25T11:18:54;10.25;78.28
72128;DHT22;60000;51.030;7.024;2024-01-25T11:21:38;10.40;78.48
72128;DHT22;60000;51.030;7.024;2024-01-25T11:24:04;10.37;76.71
72128;DHT22;60000;51.030;7.024;2024-01-25T11:26:33;10.31;76.58
72128;DHT22;60000;51.030;7.024;2024-01-25T11:28:58;10.36;76.60
72128;DHT22;60000;51.030;7.024;2024-01-25T11:31:26;10.38;76.31
72128;DHT22;60000;51.030;7.024;2024-01-25T11:33:58;10.40;76.39
72128;DHT22;60000;51.030;7.024;2024-01-25T11:36:28;10.42;76.18
72128;DHT22;60000;51.030;7.024;2024-01-25T11:38:54;10.44;75.95
72128;DHT22;60000;51.030;7.024;2024-01-25T11:41:20;10.51;75.83
72128;DHT22;60000;51.030;7.024;2024-01-25T11:43:48;10.55;75.17
72128;DHT22;60000;51.030;7.024;2024-01-25T11:46:13;10.61;75.21
72128;DHT22;60000;51.030;7.024;2024-01-25T11:48:41;10.57;74.55
72128;DHT22;60000;51.030;7.024;2024-01-25T11:51:09;10.57;74.30
72128;DHT22;60000;51.030;7.024;2024-01-25T11:53:36;10.54;74.49
72128;DHT22;60000;51.030;7.024;2024-01-25T11:56:02;10.58;74.34
72128;DHT22;60000;51.030;7.024;2024-01-25T11:58:29;10.57;73.62
72128;DHT22;60000;51.030;7.024;2024-01-25T12:00:54;10.57;74.21
72128;DHT22;60000;51.030;7.024;2024-01-25T12:03:20;10.61;73.44
72128;DHT22;60000;51.030;7.024;2024-01-25T12:05:46;10.54;72.80
72128;DHT22;60000;51.030;7.024;2024-01-25T12:08:14;10.55;72.69
72128;DHT22;60000;51.030;7.024;2024-01-25T12:10:39;10.55;72.59
72128;DHT22;60000;51.030;7.024;2024-01-25T12:13:08;10.59;72.50
72128;DHT22;60000;51.030;7.024;2024-01-25T12:15:34;10.62;72.77
72128;DHT22;60000;51.030;7.024;2024-01-25T12:18:00;10.62;72.24
72128;DHT22;60000;51.030;7.024;2024-01-25T12:20:26;10.57;71.98
72128;DHT22;60000;51.030;7.024;2024-01-25T12:22:51;10.54;72.00
72128;DHT22;60000;51.030;7.024;2024-01-25T12:25:17;10.57;72.02
72128;DHT22;60000;51.030;7.024;2024-01-25T12:27:43;10.67;72.34
72128;DHT22;60000;51.030;7.024;2024-01-25T12:30:10;10.67;71.58
72128;DHT22;60000;51.030;7.024;2024-01-25T12:32:36;10.64;71.53
72128;DHT22;60000;51.030;7.024;2024-01-25T12:35:01;10.61;71.62
72128;DHT22;60000;51.030;7.024;2024-01-25T12:37:27;10.62;71.59
72128;DHT22;60000;51.030;7.024;2024-01-25T12:39:53;10.59;71.21
72128;DHT22;60000;51.030;7.024;2024-01-25T12:42:19;10.55;71.05
72128;DHT22;60000;51.030;7.024;2024-01-25T12:44:45;10.57;71.20
72128;DHT22;60000;51.030;7.024;2024-01-25T12:47:11;10.58;70.92
72128;DHT22;60000;51.030;7.024;2024-01-25T12:49:43;10.57;70.69
72128;DHT22;60000;51.030;7.024;2024-01-25T12:52:13;10.59;70.60
72128;DHT22;60000;51.030;7.024;2024-01-25T12:54:39;10.52;69.88
72128;DHT22;60000;51.030;7.024;2024-01-25T12:57:05;10.54;70.35
72128;DHT22;60000;51.030;7.024;2024-01-25T12:59:32;10.58;70.37
72128;DHT22;60000;51.030;7.024;2024-01-25T13:01:57;10.62;70.39
72128;DHT22;60000;51.030;7.024;2024-01-25T13:04:23;10.57;69.65
72128;DHT22;60000;51.030;7.024;2024-01-25T13:06:49;10.54;69.80
72128;DHT22;60000;51.030;7.024;2024-01-25T13:09:14;10.49;69.99
72128;DHT22;60000;51.030;7.024;2024-01-25T13:11:41;10.52;69.97
72128;DHT22;60000;51.030;7.024;2024-01-25T13:14:07;10.49;69.92
72128;DHT22;60000;51.030;7.024;2024-01-25T13:16:32;10.49;69.69
72128;DHT22;60000;51.030;7.024;2024-01-25T13:18:58;10.47;69.41
72128;DHT22;60000;51.030;7.024;2024-01-25T13:21:23;10.45;69.27
72128;DHT22;60000;51.030;7.024;2024-01-25T13:23:48;10.44;69.04
72128;DHT22;60000;51.030;7.024;2024-01-25T13:26:14;10.41;69.08
72128;DHT22;60000;51.030;7.024;2024-01-25T13:28:39;10.41;69.07
72128;DHT22;60000;51.030;7.024;2024-01-25T13:31:04;10.47;69.45
72128;DHT22;60000;51.030;7.024;2024-01-25T13:33:30;10.52;69.56
72128;DHT22;60000;51.030;7.024;2024-01-25T13:35:55;10.57;69.41
72128;DHT22;60000;51.030;7.024;2024-01-25T13:38:21;10.62;69.47
72128;DHT22;60000;51.030;7.024;2024-01-25T13:40:46;10.65;69.63
72128;DHT22;60000;51.030;7.024;2024-01-25T13:43:11;10.69;69.50
72128;DHT22;60000;51.030;7.024;2024-01-25T13:45:37;10.67;69.26
72128;DHT22;60000;51.030;7.024;2024-01-25T13:48:02;10.69;69.28
72128;DHT22;60000;51.030;7.024;2024-01-25T13:50:28;10.71;69.03
72128;DHT22;60000;51.030;7.024;2024-01-25T13:52:53;10.69;69.07
72128;DHT22;60000;51.030;7.024;2024-01-25T13:55:18;10.69;69.18
72128;DHT22;60000;51.030;7.024;2024-01-25T13:57:44;10.75;69.56
72128;DHT22;60000;51.030;7.024;2024-01-25T14:00:09;10.75;69.29
72128;DHT22;60000;51.030;7.024;2024-01-25T14:02:35;10.78;69.49
72128;DHT22;60000;51.030;7.024;2024-01-25T14:05:01;10.79;69.49
72128;DHT22;60000;51.030;7.024;2024-01-25T14:07:26;10.78;69.30
72128;DHT22;60000;51.030;7.024;2024-01-25T14:09:52;10.78;69.15
72128;DHT22;60000;51.030;7.024;2024-01-25T14:12:18;10.72;69.18
72128;DHT22;60000;51.030;7.024;2024-01-25T14:14:43;10.72;69.37
72128;DHT22;60000;51.030;7.024;2024-01-25T14:17:09;10.69;69.24
72128;DHT22;60000;51.030;7.024;2024-01-25T14:19:34;10.71;69.23
72128;DHT22;60000;51.030;7.024;2024-01-25T14:21:59;10.69;69.39
72128;DHT22;60000;51.030;7.024;2024-01-25T14:24:25;10.69;69.44
72128;DHT22;60000;51.030;7.024;2024-01-25T14:26:50;10.67;69.32
72128;DHT22;60000;51.030;7.024;2024-01-25T14:29:15;10.67;69.29
72128;DHT22;60000;51.030;7.024;2024-01-25T14:31:41;10.64;69.13
72128;DHT22;60000;51.030;7.024;2024-01-25T14:34:07;10.59;69.06
72128;DHT22;60000;51.030;7.024;2024-01-25T14:36:33;10.57;69.26
72128;DHT22;60000;51.030;7.024;2024-01-25T14:38:58;10.55;69.24
72128;DHT22;60000;51.030;7.024;2024-01-25T14:41:24;10.54;69.53
72128;DHT22;60000;51.030;7.024;2024-01-25T14:43:49;10.51;69.81
72128;DHT22;60000;51.030;7.024;2024-01-25T14:46:14;10.51;69.68
72128;DHT22;60000;51.030;7.024;2024-01-25T14:48:40;10.48;69.78
72128;DHT22;60000;51.030;7.024;2024-01-25T14:51:05;10.47;69.82
72128;DHT22;60000;51.030;7.024;2024-01-25T14:53:31;10.44;69.93
72128;DHT22;60000;51.030;7.024;2024-01-25T14:55:56;10.41;69.83
72128;DHT22;60000;51.030;7.024;2024-01-25T14:58:21;10.40;69.89
72128;DHT22;60000;51.030;7.024;2024-01-25T15:00:51;10.38;69.92
72128;DHT22;60000;51.030;7.024;2024-01-25T15:03:17;10.36;70.07
72128;DHT22;60000;51.030;7.024;2024-01-25T15:05:42;10.36;69.95
72128;DHT22;60000;51.030;7.024;2024-01-25T15:08:07;10.38;69.97
72128;DHT22;60000;51.030;7.024;2024-01-25T15:10:33;10.33;69.81
72128;DHT22;60000;51.030;7.024;2024-01-25T15:12:58;10.36;70.10
72128;DHT22;60000;51.030;7.024;2024-01-25T15:15:26;10.34;70.15
72128;DHT22;60000;51.030;7.024;2024-01-25T15:17:54;10.30;70.31
72128;DHT22;60000;51.030;7.024;2024-01-25T15:20:19;10.31;70.49
72128;DHT22;60000;51.030;7.024;2024-01-25T15:22:44;10.30;70.46
72128;DHT22;60000;51.030;7.024;2024-01-25T15:25:10;10.25;70.37
72128;DHT22;60000;51.030;7.024;2024-01-25T15:27:35;10.24;70.50
72128;DHT22;60000;51.030;7.024;2024-01-25T15:30:01;10.24;70.57
72128;DHT22;60000;51.030;7.024;2024-01-25T15:32:26;10.21;70.68